Time;durP1;ratioP1;P1;durP2;ratioP2;P2;SDS_P1;SDS_P2;PMS_P1;PMS_P2;Temp;Humidity;BMP_temperature;BMP_pressure;BME280_temperature;BME280_humidity;BME280_pressure;Samples;Min_cycle;Max_cycle;Signal;HPM_P1;HPM_P2
2022/05/18 00:00:57;;;;;;;4.68;2.28;;;;;;;17.83;97.14;100380.53;4974431;28;20105;-69
2022/05/18 00:03:26;;;;;;;3.95;2.25;;;;;;;17.91;97.10;100396.22;4972737;28;20027;-69
2022/05/18 00:05:52;;;;;;;4.20;2.40;;;;;;;17.82;97.09;100397.63;4973730;28;20199;-69
2022/05/18 00:08:17;;;;;;;5.55;2.40;;;;;;;17.73;97.11;100384.69;4974108;28;20402;-69
2022/05/18 00:10:46;;;;;;;5.55;2.60;;;;;;;17.72;97.27;100409.84;4974343;28;20030;-69
2022/05/18 00:13:12;;;;;;;3.80;2.10;;;;;;;17.70;97.59;100409.06;4971903;28;20560;-69
2022/05/18 00:15:38;;;;;;;3.45;2.13;;;;;;;17.74;97.75;100402.53;4975415;28;20046;-69
2022/05/18 00:18:04;;;;;;;3.17;1.90;;;;;;;17.61;97.71;100384.50;4958551;28;20058;-69
2022/05/18 00:20:30;;;;;;;4.80;2.63;;;;;;;17.63;98.01;100396.91;4954421;29;20184;-69
2022/05/18 00:22:59;;;;;;;7.35;2.28;;;;;;;17.57;98.30;100396.38;4953924;29;20107;-69
2022/05/18 00:25:32;;;;;;;4.43;1.92;;;;;;;17.52;98.68;100393.06;4953023;29;20027;-69
2022/05/18 00:27:57;;;;;;;5.25;2.22;;;;;;;17.50;98.95;100401.22;4952949;29;20034;-69
2022/05/18 00:30:25;;;;;;;4.10;2.35;;;;;;;17.51;99.38;100408.31;4969534;28;20048;-69
2022/05/18 00:32:51;;;;;;;4.13;2.42;;;;;;;17.45;99.50;100416.75;4971824;28;20034;-69
2022/05/18 00:35:17;;;;;;;3.53;2.13;;;;;;;17.48;99.66;100426.47;4971862;28;20422;-69
2022/05/18 00:37:43;;;;;;;3.95;2.33;;;;;;;17.38;99.50;100407.22;4972047;28;20046;-69
2022/05/18 00:40:12;;;;;;;4.82;2.17;;;;;;;17.41;100.00;100423.22;4972994;28;20038;-69
2022/05/18 00:42:38;;;;;;;4.45;2.45;;;;;;;17.32;99.88;100412.94;4973174;28;20039;-69
2022/05/18 00:45:04;;;;;;;5.80;2.53;;;;;;;17.37;99.91;100416.25;4975900;28;20031;-69
2022/05/18 00:47:30;;;;;;;8.02;2.08;;;;;;;17.39;99.46;100422.44;4972438;28;20051;-69
2022/05/18 00:50:04;;;;;;;7.07;2.22;;;;;;;17.42;99.82;100424.06;4973213;28;20038;-69
2022/05/18 00:52:37;;;;;;;2.78;2.03;;;;;;;17.40;99.90;100416.09;4972380;28;20486;-69
2022/05/18 00:55:03;;;;;;;2.80;2.50;;;;;;;17.48;99.78;100418.41;4973154;28;20121;-69
2022/05/18 00:57:34;;;;;;;5.05;2.40;;;;;;;17.42;99.90;100424.94;4972736;28;20047;-69
2022/05/18 01:00:13;;;;;;;4.40;2.38;;;;;;;17.40;100.00;100426.84;4972384;28;20105;-69
2022/05/18 01:02:46;;;;;;;5.63;2.50;;;;;;;17.31;100.00;100427.34;4973032;28;20062;-69
2022/05/18 01:05:17;;;;;;;3.88;2.33;;;;;;;17.27;100.00;100420.38;4972384;28;20027;-69
2022/05/18 01:07:49;;;;;;;4.07;2.42;;;;;;;17.21;100.00;100409.97;4955014;28;20367;-69
2022/05/18 01:10:19;;;;;;;4.03;2.28;;;;;;;17.24;100.00;100417.00;4972336;28;20070;-69
2022/05/18 01:12:46;;;;;;;3.45;2.17;;;;;;;17.19;100.00;100424.44;4972926;28;20031;-69
2022/05/18 01:15:16;;;;;;;7.90;3.58;;;;;;;17.15;100.00;100421.03;4972947;28;20089;-69
2022/05/18 01:17:44;;;;;;;4.22;2.38;;;;;;;17.12;100.00;100414.97;4942452;29;20460;-69
2022/05/18 01:20:16;;;;;;;5.55;2.17;;;;;;;17.08;100.00;100414.25;4953273;29;20034;-69
2022/05/18 01:23:09;;;;;;;4.07;2.22;;;;;;;16.99;100.00;100412.91;4952898;29;20130;-69
2022/05/18 01:25:58;;;;;;;4.03;2.37;;;;;;;17.00;100.00;100421.84;4951306;29;20035;-68
2022/05/18 01:28:28;;;;;;;4.75;2.42;;;;;;;16.88;100.00;100419.81;4952972;29;20344;-68
2022/05/18 01:30:54;;;;;;;4.95;2.30;;;;;;;16.90;100.00;100425.97;4959742;28;20053;-68
2022/05/18 01:33:21;;;;;;;9.15;2.78;;;;;;;16.92;100.00;100434.78;4972204;28;20023;-68
2022/05/18 01:35:48;;;;;;;3.80;2.33;;;;;;;16.80;100.00;100424.72;4972399;28;20034;-68
2022/05/18 01:38:15;;;;;;;4.60;2.42;;;;;;;16.85;100.00;100441.47;4970836;28;20106;-68
2022/05/18 01:40:58;;;;;;;4.35;2.47;;;;;;;16.81;100.00;100431.81;4971024;28;20114;-68
2022/05/18 01:43:38;;;;;;;4.45;2.72;;;;;;;16.84;100.00;100434.31;4972553;28;20108;-68
2022/05/18 01:46:10;;;;;;;5.68;3.13;;;;;;;16.82;100.00;100438.91;4971418;28;20172;-68
2022/05/18 01:48:41;;;;;;;7.07;2.70;;;;;;;16.78;100.00;100431.97;4971977;28;20094;-68
2022/05/18 01:51:09;;;;;;;5.55;2.80;;;;;;;16.73;100.00;100439.38;4972212;28;20022;-68
2022/05/18 01:53:36;;;;;;;5.45;2.40;;;;;;;16.68;100.00;100438.75;4971941;28;20019;-68
2022/05/18 01:56:02;;;;;;;3.78;2.67;;;;;;;16.65;100.00;100441.59;4971865;28;20513;-68
2022/05/18 01:58:28;;;;;;;4.88;2.88;;;;;;;16.69;100.00;100443.16;4970300;28;20034;-68
2022/05/18 02:00:54;;;;;;;5.03;2.45;;;;;;;16.66;100.00;100441.53;4973400;28;20034;-68
2022/05/18 02:03:21;;;;;;;4.03;2.42;;;;;;;16.62;100.00;100441.75;4953243;28;20058;-68
2022/05/18 02:05:47;;;;;;;6.28;2.50;;;;;;;16.57;100.00;100444.66;4964762;28;20506;-68
2022/05/18 02:08:15;;;;;;;5.50;2.70;;;;;;;16.53;100.00;100459.19;4989628;28;20062;-67
2022/05/18 02:10:41;;;;;;;4.78;3.05;;;;;;;16.55;100.00;100451.94;4994281;28;20030;-67
2022/05/18 02:13:07;;;;;;;4.43;2.70;;;;;;;16.53;100.00;100444.91;4997951;28;20382;-68
2022/05/18 02:15:34;;;;;;;5.80;2.80;;;;;;;16.55;100.00;100446.56;4992659;28;20510;-68
2022/05/18 02:18:00;;;;;;;6.53;3.15;;;;;;;16.50;100.00;100447.72;4978640;28;20037;-68
2022/05/18 02:20:25;;;;;;;4.90;2.67;;;;;;;16.40;100.00;100449.97;4996962;28;20023;-68
2022/05/18 02:22:51;;;;;;;7.13;2.97;;;;;;;16.34;100.00;100436.84;4996649;28;20030;-68
2022/05/18 02:25:18;;;;;;;5.85;3.08;;;;;;;16.39;100.00;100448.22;4996139;28;20045;-68
2022/05/18 02:27:44;;;;;;;5.03;2.95;;;;;;;16.33;100.00;100439.59;4979905;28;20022;-68
2022/05/18 02:30:10;;;;;;;6.32;3.03;;;;;;;16.30;100.00;100443.31;4997702;28;20116;-68
2022/05/18 02:32:36;;;;;;;4.70;2.65;;;;;;;16.34;100.00;100455.63;4997734;28;20176;-68
2022/05/18 02:35:02;;;;;;;4.45;3.03;;;;;;;16.31;100.00;100458.47;4979486;28;20026;-69
2022/05/18 02:37:27;;;;;;;4.82;2.60;;;;;;;16.26;100.00;100448.94;4997243;28;20026;-69
2022/05/18 02:39:52;;;;;;;3.58;2.28;;;;;;;16.19;100.00;100448.34;4994478;28;20053;-69
2022/05/18 02:42:18;;;;;;;4.28;2.47;;;;;;;16.19;100.00;100458.22;4997754;28;20565;-68
2022/05/18 02:44:43;;;;;;;6.95;3.00;;;;;;;16.12;100.00;100446.03;4997155;28;20807;-68
2022/05/18 02:47:09;;;;;;;4.57;2.45;;;;;;;16.13;100.00;100450.47;4982354;28;20411;-68
2022/05/18 02:49:35;;;;;;;4.55;2.58;;;;;;;16.05;100.00;100455.31;4978164;28;20212;-68
2022/05/18 02:52:00;;;;;;;5.57;3.25;;;;;;;16.01;100.00;100454.59;4977404;28;20023;-68
2022/05/18 02:57:10;;;;;;;3.58;2.42;;;;;;;15.90;100.00;100462.28;4997176;28;20085;-70
2022/05/18 02:59:36;;;;;;;6.03;3.22;;;;;;;15.94;100.00;100457.63;4997749;28;20505;-70
2022/05/18 03:02:02;;;;;;;3.40;2.50;;;;;;;15.70;100.00;100425.66;4997295;28;20030;-69
2022/05/18 03:04:32;;;;;;;6.85;2.60;;;;;;;15.89;100.00;100456.97;4997123;28;20476;-69
2022/05/18 03:06:58;;;;;;;6.25;2.80;;;;;;;15.88;100.00;100464.16;4997710;28;20041;-69
2022/05/18 03:09:23;;;;;;;6.65;3.42;;;;;;;15.78;100.00;100447.63;4995428;28;20036;-69
2022/05/18 03:11:50;;;;;;;4.00;2.70;;;;;;;15.74;100.00;100463.94;4982044;28;20027;-69
2022/05/18 03:14:16;;;;;;;5.40;2.90;;;;;;;15.68;100.00;100451.66;4976103;28;20023;-69
2022/05/18 03:16:43;;;;;;;5.00;3.08;;;;;;;15.72;100.00;100469.38;4973271;28;20267;-69
2022/05/18 03:19:10;;;;;;;7.22;3.65;;;;;;;15.65;100.00;100473.28;4958520;28;20491;-68
2022/05/18 03:24:19;;;;;;;5.72;3.28;;;;;;;15.72;100.00;100472.06;4955633;29;20050;-69
2022/05/18 03:26:45;;;;;;;6.93;3.58;;;;;;;15.76;100.00;100481.69;4955148;29;20023;-69
2022/05/18 03:29:10;;;;;;;5.43;2.95;;;;;;;15.73;100.00;100479.16;4954003;29;20518;-69
2022/05/18 03:31:36;;;;;;;11.98;3.38;;;;;;;15.64;100.00;100470.66;4953539;29;20035;-70
2022/05/18 03:34:01;;;;;;;9.45;2.97;;;;;;;15.71;100.00;100489.09;4954282;29;20029;-69
2022/05/18 03:36:27;;;;;;;4.57;2.95;;;;;;;15.68;100.00;100491.91;4955623;28;20038;-69
2022/05/18 03:38:53;;;;;;;7.50;3.38;;;;;;;15.65;100.00;100497.41;4972688;28;20026;-69
2022/05/18 03:41:19;;;;;;;5.80;3.13;;;;;;;15.61;100.00;100506.56;4971382;28;20023;-69
2022/05/18 03:43:45;;;;;;;6.28;3.20;;;;;;;15.60;100.00;100503.94;4956149;28;20022;-69
2022/05/18 03:46:11;;;;;;;5.50;3.30;;;;;;;15.61;100.00;100505.66;4974076;28;20023;-69
2022/05/18 03:48:37;;;;;;;5.38;3.13;;;;;;;15.55;100.00;100505.97;4973751;28;20513;-69
2022/05/18 03:51:05;;;;;;;5.15;2.78;;;;;;;15.47;100.00;100500.03;4974192;28;20034;-69
2022/05/18 03:53:31;;;;;;;5.90;3.00;;;;;;;15.48;100.00;100508.03;4974364;28;20122;-69
2022/05/18 03:55:57;;;;;;;5.07;2.88;;;;;;;15.46;100.00;100515.28;4993671;28;20093;-69
2022/05/18 03:58:23;;;;;;;5.90;3.40;;;;;;;15.56;100.00;100515.72;4993201;28;20793;-69
2022/05/18 04:00:51;;;;;;;5.18;3.28;;;;;;;15.62;100.00;100516.31;4975615;28;20430;-69
2022/05/18 04:03:18;;;;;;;9.93;3.67;;;;;;;15.62;100.00;100510.09;4993226;28;20429;-69
2022/05/18 04:05:47;;;;;;;5.78;3.45;;;;;;;15.58;100.00;100514.72;4993676;28;20027;-69
2022/05/18 04:08:13;;;;;;;5.57;3.20;;;;;;;15.51;100.00;100498.97;4993464;28;20045;-68
2022/05/18 04:10:39;;;;;;;6.65;3.20;;;;;;;15.64;100.00;100518.94;4993392;28;20429;-68
2022/05/18 04:13:07;;;;;;;8.50;3.70;;;;;;;15.65;100.00;100524.22;4978793;28;20030;-68
2022/05/18 04:15:32;;;;;;;6.57;3.40;;;;;;;15.73;100.00;100530.13;4973724;28;20041;-68
2022/05/18 04:18:01;;;;;;;9.90;3.13;;;;;;;15.74;100.00;100537.25;4971281;28;20363;-68
2022/05/18 04:20:26;;;;;;;5.93;3.28;;;;;;;15.88;100.00;100533.91;4964730;28;20026;-68
2022/05/18 04:22:52;;;;;;;6.50;3.75;;;;;;;15.96;100.00;100530.88;4973993;28;20500;-68
2022/05/18 04:25:23;;;;;;;7.65;3.80;;;;;;;16.05;100.00;100533.13;4973244;28;20061;-68
2022/05/18 04:27:49;;;;;;;11.43;3.60;;;;;;;16.05;100.00;100522.38;4973517;28;20394;-69
2022/05/18 04:30:17;;;;;;;6.80;3.92;;;;;;;16.21;100.00;100528.81;4976070;28;20026;-69
2022/05/18 04:32:43;;;;;;;7.18;3.72;;;;;;;16.28;100.00;100543.66;4973190;28;20030;-70
2022/05/18 04:35:11;;;;;;;7.20;3.47;;;;;;;16.27;100.00;100537.44;4954866;28;20023;-70
2022/05/18 04:37:37;;;;;;;7.78;3.63;;;;;;;16.28;100.00;100527.53;4973608;28;20029;-70
2022/05/18 04:40:04;;;;;;;6.10;3.65;;;;;;;16.38;100.00;100544.97;4955619;28;20125;-69
2022/05/18 04:42:29;;;;;;;6.70;3.10;;;;;;;16.45;100.00;100554.47;4973340;28;20033;-69
2022/05/18 04:44:55;;;;;;;7.55;3.92;;;;;;;16.47;100.00;100537.38;4973414;28;20113;-69
2022/05/18 04:47:21;;;;;;;7.88;4.07;;;;;;;16.63;100.00;100556.31;4973162;28;20476;-70
2022/05/18 04:49:47;;;;;;;6.40;4.50;;;;;;;16.72;100.00;100554.03;4973168;28;20092;-70
2022/05/18 04:52:12;;;;;;;6.55;3.50;;;;;;;16.78;100.00;100555.56;4973246;28;20035;-70
2022/05/18 04:54:38;;;;;;;5.78;3.97;;;;;;;16.92;100.00;100563.78;4979774;28;20033;-70
2022/05/18 04:57:04;;;;;;;5.93;3.72;;;;;;;17.01;100.00;100566.91;4974897;28;20112;-69
2022/05/18 04:59:29;;;;;;;6.10;3.65;;;;;;;17.14;100.00;100567.16;4992267;28;20030;-69
2022/05/18 05:01:55;;;;;;;5.75;3.65;;;;;;;17.27;100.00;100576.34;4992317;28;20026;-70
2022/05/18 05:04:20;;;;;;;7.13;4.00;;;;;;;17.34;100.00;100577.78;4992606;28;20470;-70
2022/05/18 05:06:46;;;;;;;5.07;3.10;;;;;;;17.40;100.00;100574.75;4982194;28;20034;-70
2022/05/18 05:09:13;;;;;;;7.38;3.67;;;;;;;17.53;100.00;100578.59;4972316;28;20105;-69
2022/05/18 05:11:39;;;;;;;7.03;4.00;;;;;;;17.62;99.51;100588.00;4972655;28;20114;-69
2022/05/18 05:14:05;;;;;;;6.70;3.53;;;;;;;17.65;98.78;100588.72;4972939;28;20391;-70
2022/05/18 05:16:31;;;;;;;7.47;3.83;;;;;;;17.83;98.21;100576.97;4969826;28;20070;-70
2022/05/18 05:18:57;;;;;;;14.20;4.10;;;;;;;18.14;96.82;100585.13;4952833;29;20023;-70
2022/05/18 05:21:23;;;;;;;12.95;4.07;;;;;;;18.19;93.69;100584.88;4952594;29;20027;-70
2022/05/18 05:23:48;;;;;;;5.18;3.38;;;;;;;18.30;94.00;100587.88;4953371;29;20097;-70
2022/05/18 05:26:14;;;;;;;5.65;3.38;;;;;;;18.43;91.25;100594.34;4953063;29;20454;-70
2022/05/18 05:28:40;;;;;;;6.00;3.75;;;;;;;18.33;90.89;100583.16;4961709;28;20504;-70
2022/05/18 05:31:08;;;;;;;6.93;3.85;;;;;;;18.37;91.84;100584.75;4991886;28;20038;-70
2022/05/18 05:33:35;;;;;;;5.97;3.80;;;;;;;18.58;91.10;100587.25;4974980;28;20606;-70
2022/05/18 05:36:01;;;;;;;6.18;4.03;;;;;;;18.72;90.60;100590.00;4972852;28;20505;-70
2022/05/18 05:38:27;;;;;;;6.45;3.92;;;;;;;18.74;90.92;100591.69;4954222;28;20061;-70
2022/05/18 05:40:54;;;;;;;5.55;3.67;;;;;;;18.85;91.08;100593.75;4972645;28;20022;-70
2022/05/18 05:43:19;;;;;;;6.80;4.45;;;;;;;19.01;91.38;100594.63;4972787;28;20406;-70
2022/05/18 05:45:58;;;;;;;6.97;3.60;;;;;;;19.14;89.71;100592.94;4971195;28;20026;-70
2022/05/18 05:48:24;;;;;;;7.97;3.35;;;;;;;19.27;88.49;100586.75;4971962;28;20051;-70
2022/05/18 05:50:50;;;;;;;7.40;3.65;;;;;;;19.41;88.06;100588.63;4972239;28;20038;-71
2022/05/18 05:53:15;;;;;;;6.55;3.80;;;;;;;19.62;87.09;100593.63;4954928;28;20030;-71
2022/05/18 05:55:41;;;;;;;6.05;3.55;;;;;;;19.76;86.56;100584.69;4987214;28;20350;-71
2022/05/18 05:58:06;;;;;;;6.85;4.13;;;;;;;19.85;86.89;100591.38;4989685;28;20029;-71
2022/05/18 06:00:32;;;;;;;7.18;3.85;;;;;;;19.89;86.37;100572.19;4989966;28;20022;-70
2022/05/18 06:02:58;;;;;;;6.72;3.95;;;;;;;20.01;85.80;100586.75;4965553;28;20122;-70
2022/05/18 06:05:23;;;;;;;7.53;3.90;;;;;;;20.22;85.46;100601.66;4950630;29;20035;-70
2022/05/18 06:07:49;;;;;;;14.18;4.07;;;;;;;20.41;83.94;100608.50;4965190;28;20125;-70
2022/05/18 06:10:15;;;;;;;8.60;3.90;;;;;;;20.55;83.00;100600.38;4970923;28;20046;-70
2022/05/18 06:12:40;;;;;;;8.02;4.22;;;;;;;20.58;81.51;100591.19;4972222;28;20494;-70
2022/05/18 06:15:08;;;;;;;7.45;4.03;;;;;;;20.76;81.47;100604.41;4971117;28;20029;-70
2022/05/18 06:17:33;;;;;;;7.45;4.20;;;;;;;20.89;80.79;100602.63;4960728;28;20047;-69
2022/05/18 06:19:59;;;;;;;6.15;4.18;;;;;;;20.95;80.23;100599.50;4972685;28;20031;-70
2022/05/18 06:22:25;;;;;;;6.80;4.15;;;;;;;21.05;80.17;100604.38;4968859;28;20390;-69
2022/05/18 06:24:52;;;;;;;9.45;4.22;;;;;;;21.08;79.69;100593.34;4968904;28;20042;-69
2022/05/18 06:27:21;;;;;;;8.35;3.50;;;;;;;21.33;79.34;100601.56;4977195;28;20033;-69
2022/05/18 06:29:48;;;;;;;6.65;3.80;;;;;;;21.55;78.29;100605.41;4976327;28;20158;-70
2022/05/18 06:32:14;;;;;;;6.40;3.40;;;;;;;21.71;78.29;100602.53;4971224;28;20478;-70
2022/05/18 06:34:40;;;;;;;5.63;3.30;;;;;;;21.86;77.53;100601.50;4971310;28;20030;-69
2022/05/18 06:37:06;;;;;;;5.28;3.47;;;;;;;21.92;74.83;100587.50;4972309;28;20031;-69
2022/05/18 06:39:31;;;;;;;7.18;3.35;;;;;;;22.26;73.90;100603.13;4954504;28;20081;-70
2022/05/18 06:41:58;;;;;;;5.47;3.00;;;;;;;22.35;73.62;100607.91;4970795;28;20509;-70
2022/05/18 06:44:24;;;;;;;5.50;3.55;;;;;;;22.51;73.55;100596.78;4971700;28;20486;-70
2022/05/18 06:46:50;;;;;;;5.90;3.08;;;;;;;22.80;72.25;100610.00;4971515;28;20057;-70
2022/05/18 06:49:17;;;;;;;5.10;2.70;;;;;;;23.00;70.89;100603.97;4971316;28;20053;-70
2022/05/18 06:51:45;;;;;;;4.57;2.70;;;;;;;23.22;69.35;100601.41;4971032;28;20487;-69
2022/05/18 06:54:12;;;;;;;5.13;3.17;;;;;;;23.40;70.00;100600.03;4977135;28;20098;-69
2022/05/18 06:56:42;;;;;;;9.30;2.65;;;;;;;23.60;67.37;100601.22;4959776;28;20053;-69
2022/05/18 06:59:09;;;;;;;5.47;2.80;;;;;;;23.79;65.98;100600.69;4975114;28;20050;-70
2022/05/18 07:01:35;;;;;;;5.03;2.63;;;;;;;24.01;66.22;100600.75;4957949;28;20049;-70
2022/05/18 07:04:00;;;;;;;6.32;2.30;;;;;;;24.25;65.27;100593.38;4971318;28;20018;-69
2022/05/18 07:06:29;;;;;;;4.57;2.28;;;;;;;24.53;62.10;100598.31;4974492;28;20034;-69
2022/05/18 07:08:55;;;;;;;6.10;2.70;;;;;;;24.72;62.04;100595.88;4974748;28;20086;-69
2022/05/18 07:11:22;;;;;;;5.38;2.45;;;;;;;24.88;62.19;100596.34;4974526;28;20027;-69
2022/05/18 07:13:51;;;;;;;6.15;2.90;;;;;;;25.06;61.25;100592.09;4975196;28;20035;-69
2022/05/18 07:16:18;;;;;;;6.93;3.08;;;;;;;25.46;61.00;100593.25;4973002;28;20019;-69
2022/05/18 07:18:45;;;;;;;6.63;2.60;;;;;;;25.79;61.04;100604.00;4955649;29;20031;-69
2022/05/18 07:21:11;;;;;;;5.45;2.72;;;;;;;26.09;59.50;100605.09;4957051;28;20031;-68
2022/05/18 07:23:37;;;;;;;5.45;2.50;;;;;;;26.17;56.31;100611.59;4974344;28;20031;-69
2022/05/18 07:26:03;;;;;;;4.50;2.40;;;;;;;26.26;55.72;100612.66;4971225;28;20046;-68
2022/05/18 07:28:29;;;;;;;4.93;2.83;;;;;;;26.49;56.67;100601.41;4973462;28;20026;-68
2022/05/18 07:30:55;;;;;;;4.45;2.50;;;;;;;27.05;55.28;100613.59;4957313;28;20268;-69
2022/05/18 07:33:21;;;;;;;7.30;2.70;;;;;;;27.14;53.90;100614.63;4974119;28;20041;-68
2022/05/18 07:35:47;;;;;;;3.83;2.42;;;;;;;27.16;54.01;100618.06;4957316;28;20026;-68
2022/05/18 07:38:13;;;;;;;6.35;2.90;;;;;;;27.53;54.41;100613.69;4973663;28;20025;-69
2022/05/18 07:40:39;;;;;;;4.88;2.75;;;;;;;27.72;52.43;100610.09;4970232;28;20049;-69
2022/05/18 07:43:04;;;;;;;7.30;3.33;;;;;;;28.16;52.28;100609.50;4972351;28;20026;-69
2022/05/18 07:45:30;;;;;;;4.72;2.65;;;;;;;28.53;49.83;100623.25;4972633;28;20380;-69
2022/05/18 07:47:56;;;;;;;5.95;2.53;;;;;;;28.65;48.34;100622.06;4970260;28;20047;-68
2022/05/18 07:50:23;;;;;;;4.80;2.30;;;;;;;28.64;46.76;100615.72;4972532;28;20034;-68
2022/05/18 07:52:49;;;;;;;6.75;2.47;;;;;;;28.88;46.58;100615.19;4971437;28;20034;-68
2022/05/18 07:55:15;;;;;;;4.20;2.05;;;;;;;29.24;46.37;100623.34;4985253;28;20034;-69
2022/05/18 07:57:41;;;;;;;3.67;1.90;;;;;;;29.46;45.28;100622.94;4991414;28;20517;-69
2022/05/18 08:00:08;;;;;;;5.22;1.83;;;;;;;29.57;44.34;100616.38;4991680;28;20044;-68
2022/05/18 08:02:34;;;;;;;5.30;2.50;;;;;;;29.46;44.51;100622.06;4992197;28;20482;-69
2022/05/18 08:05:00;;;;;;;4.22;1.73;;;;;;;29.57;44.05;100614.47;4992681;28;20034;-69
2022/05/18 08:07:26;;;;;;;3.63;1.90;;;;;;;29.53;42.98;100623.16;4976550;28;20027;-69
2022/05/18 08:15:21;;;;;;;5.93;2.20;;;;;;;30.44;43.41;100614.56;4972953;28;20060;-68
2022/05/18 08:17:47;;;;;;;6.28;2.20;;;;;;;30.43;44.31;100619.19;4975024;28;20026;-68
2022/05/18 08:20:16;;;;;;;4.80;1.88;;;;;;;30.79;43.31;100618.03;4971820;28;20118;-68
2022/05/18 08:22:41;;;;;;;6.43;2.08;;;;;;;31.45;43.03;100617.28;4974947;28;20509;-68
2022/05/18 08:25:09;;;;;;;6.63;2.15;;;;;;;31.58;41.09;100623.16;4972259;28;20038;-68
2022/05/18 08:27:38;;;;;;;4.03;2.10;;;;;;;31.77;40.19;100622.81;4972849;28;20045;-68
2022/05/18 08:30:06;;;;;;;4.28;2.20;;;;;;;31.99;40.88;100617.53;4973303;28;20022;-69
2022/05/18 08:32:31;;;;;;;3.28;1.70;;;;;;;32.04;40.49;100619.78;4975876;28;20050;-69
2022/05/18 08:34:57;;;;;;;2.90;1.60;;;;;;;31.89;41.03;100627.00;4972339;28;20062;-68
2022/05/18 08:37:23;;;;;;;6.18;2.30;;;;;;;31.85;39.85;100626.47;4971883;28;20039;-68
2022/05/18 08:39:50;;;;;;;5.57;2.13;;;;;;;32.23;40.74;100613.91;4972448;28;20023;-68
2022/05/18 08:42:16;;;;;;;4.93;1.83;;;;;;;32.65;40.16;100624.72;4973294;28;20114;-68
2022/05/18 08:44:42;;;;;;;2.88;1.80;;;;;;;32.71;38.74;100605.56;4973535;28;20418;-67
2022/05/18 08:47:42;;;;;;;5.85;2.00;;;;;;;32.59;38.29;100614.38;4972606;28;20035;-67
2022/05/18 08:50:19;;;;;;;8.27;1.92;;;;;;;32.58;39.29;100613.53;4973440;28;20549;-67
2022/05/18 08:53:08;;;;;;;4.00;2.08;;;;;;;32.99;37.16;100612.38;4955780;28;20041;-67
2022/05/18 08:56:03;;;;;;;3.53;1.83;;;;;;;33.24;38.91;100611.25;4989029;28;20129;-67
2022/05/18 08:58:29;;;;;;;4.38;2.30;;;;;;;33.18;38.39;100619.38;4989509;28;21524;-67
2022/05/18 09:01:17;;;;;;;5.50;2.00;;;;;;;32.29;37.81;100602.19;4973334;28;20034;-68
2022/05/18 09:03:50;;;;;;;4.43;1.67;;;;;;;32.28;38.86;100597.72;4972826;28;20042;-68
2022/05/18 09:06:18;;;;;;;;;;;;;;;32.22;38.77;100603.94;4972513;28;20019;-67
2022/05/18 09:10:12;;;;;;;4.30;1.67;;;;;;;32.22;39.73;100611.34;4971459;28;19940;-68
2022/05/18 09:11:38;;;;;;;5.80;1.92;;;;;;;32.54;39.49;100609.41;4971586;28;20057;-68
2022/05/18 09:14:17;;;;;;;5.65;2.03;;;;;;;32.76;38.30;100605.03;4971506;28;20045;-68
2022/05/18 09:17:02;;;;;;;3.38;2.10;;;;;;;32.76;38.05;100599.53;4967102;28;20023;-69
2022/05/18 09:20:11;;;;;;;3.05;1.63;;;;;;;33.08;36.64;100604.94;4952428;28;20043;-68
2022/05/18 09:23:02;;;;;;;5.20;2.08;;;;;;;32.67;38.45;100604.19;4960312;28;20033;-68
2022/05/18 09:26:04;;;;;;;3.17;2.03;;;;;;;32.12;38.48;100600.50;4973172;28;20447;-67
2022/05/18 09:28:58;;;;;;;3.50;1.80;;;;;;;32.49;37.97;100592.53;4973305;28;20049;-67
2022/05/18 09:31:30;;;;;;;3.35;1.60;;;;;;;32.77;37.31;100593.81;4971654;28;20057;-67
2022/05/18 09:34:01;;;;;;;2.80;1.70;;;;;;;33.13;38.75;100603.34;4971932;28;20027;-67
2022/05/18 09:36:32;;;;;;;7.85;2.70;;;;;;;33.28;36.44;100603.44;4971359;28;20027;-68
2022/05/18 09:39:14;;;;;;;5.10;2.05;;;;;;;33.66;39.07;100593.41;4970579;28;20022;-68
2022/05/18 09:42:01;;;;;;;3.72;1.90;;;;;;;33.67;36.28;100595.13;4969727;28;20023;-68
2022/05/18 09:44:40;;;;;;;4.75;1.90;;;;;;;34.10;36.66;100591.69;4970211;28;20027;-68
2022/05/18 09:47:07;;;;;;;4.72;1.67;;;;;;;34.27;35.69;100584.94;4970264;28;20502;-68
2022/05/18 09:49:42;;;;;;;4.30;1.80;;;;;;;34.23;35.46;100575.31;4951351;29;20031;-68
2022/05/18 09:52:08;;;;;;;5.20;1.88;;;;;;;34.50;35.83;100589.38;4951921;29;20027;-68
2022/05/18 09:54:36;;;;;;;4.57;1.73;;;;;;;34.50;37.13;100572.81;4967164;28;20136;-69
2022/05/18 09:57:09;;;;;;;5.22;2.10;;;;;;;34.61;34.87;100579.78;4991206;28;20027;-69
2022/05/18 09:59:42;;;;;;;4.30;1.52;;;;;;;35.03;35.28;100588.25;4990818;28;20018;-68
2022/05/18 10:08:01;;;;;;;8.60;1.75;;;;;;;35.44;33.27;100577.47;4910923;29;20068;-68
2022/05/18 10:10:26;;;;;;;3.47;1.50;;;;;;;35.41;33.44;100564.03;4960847;28;20064;-68
2022/05/18 10:12:54;;;;;;;4.38;1.80;;;;;;;35.87;33.73;100572.88;4987988;28;20058;-69
2022/05/18 10:15:25;;;;;;;3.45;1.77;;;;;;;36.16;31.34;100567.13;4975335;28;20122;-69
2022/05/18 10:17:55;;;;;;;3.58;1.60;;;;;;;36.29;30.88;100567.25;4958685;28;20027;-69
2022/05/18 10:20:25;;;;;;;3.88;1.20;;;;;;;36.32;29.98;100562.19;4953673;29;20530;-69
2022/05/18 10:22:52;;;;;;;3.00;1.23;;;;;;;36.65;30.68;100563.25;4953189;29;20027;-68
2022/05/18 10:25:26;;;;;;;6.20;1.27;;;;;;;37.07;32.14;100561.34;4953388;29;20150;-69
2022/05/18 10:27:53;;;;;;;11.00;1.63;;;;;;;36.99;29.61;100559.59;4952851;29;20031;-69
2022/05/18 10:30:32;;;;;;;2.25;0.90;;;;;;;36.64;28.97;100560.69;4951795;28;20062;-68
2022/05/18 10:33:19;;;;;;;5.68;1.10;;;;;;;36.98;29.76;100552.34;4956777;29;20090;-69
2022/05/18 10:35:51;;;;;;;2.67;1.17;;;;;;;36.81;29.11;100565.72;4954437;29;20035;-69
2022/05/18 10:38:32;;;;;;;2.53;1.63;;;;;;;36.89;28.96;100553.56;4955269;29;20110;-69
2022/05/18 10:41:03;;;;;;;2.30;1.50;;;;;;;36.67;28.50;100551.97;4973229;28;20116;-69
2022/05/18 10:43:42;;;;;;;2.05;1.15;;;;;;;37.06;29.26;100554.94;4974912;28;20045;-69
2022/05/18 10:46:29;;;;;;;2.63;1.38;;;;;;;37.15;28.45;100552.84;4974684;28;20126;-69
2022/05/18 10:49:03;;;;;;;2.47;1.40;;;;;;;37.35;27.76;100543.53;4950630;29;20068;-69
2022/05/18 10:52:06;;;;;;;1.67;1.05;;;;;;;37.53;26.24;100535.44;4936059;29;20063;-69
2022/05/18 10:54:33;;;;;;;;;;;;;;;37.71;27.77;100538.50;4935183;29;20019;-69
2022/05/18 10:57:15;;;;;;;3.15;0.90;;;;;;;37.99;27.31;100536.38;4956622;29;19910;-69
2022/05/18 10:59:54;;;;;;;2.33;1.00;;;;;;;38.28;25.71;100537.03;4956816;28;20360;-69
2022/05/18 11:02:36;;;;;;;1.05;0.70;;;;;;;37.73;27.71;100527.16;4956730;28;20027;-69
2022/05/18 11:05:20;;;;;;;2.63;1.42;;;;;;;37.65;26.82;100525.44;4956530;28;20034;-69
2022/05/18 11:07:46;;;;;;;3.17;1.27;;;;;;;38.04;29.45;100522.69;4956042;29;20111;-69
2022/05/18 11:10:12;;;;;;;3.42;1.42;;;;;;;37.53;27.46;100512.41;4940778;28;20036;-69
2022/05/18 11:13:01;;;;;;;1.98;1.38;;;;;;;37.54;29.44;100503.84;4936925;29;20082;-68
2022/05/18 11:15:42;;;;;;;2.38;1.52;;;;;;;37.54;28.59;100503.00;4936569;29;20028;-69
2022/05/18 11:18:26;;;;;;;2.38;1.40;;;;;;;37.43;30.25;100496.13;4933826;29;20024;-68
2022/05/18 11:21:16;;;;;;;3.83;1.20;;;;;;;36.51;28.56;100496.84;4937255;29;20115;-68
2022/05/18 11:23:47;;;;;;;2.72;1.50;;;;;;;36.02;29.08;100498.81;4936340;29;20034;-68
2022/05/18 11:26:31;;;;;;;4.63;1.60;;;;;;;35.51;29.93;100495.38;4936894;29;20036;-68
2022/05/18 11:29:25;;;;;;;2.85;1.40;;;;;;;35.80;31.74;100485.00;4937014;29;20417;-68
2022/05/18 11:32:15;;;;;;;3.75;1.60;;;;;;;36.45;30.30;100489.34;4936124;29;20032;-68
2022/05/18 11:35:17;;;;;;;3.90;1.48;;;;;;;36.84;29.03;100495.09;4936790;29;20042;-68
2022/05/18 11:38:07;;;;;;;2.83;1.45;;;;;;;37.45;31.45;100485.69;4936948;29;20037;-68
2022/05/18 11:41:07;;;;;;;6.30;1.48;;;;;;;37.87;29.76;100490.88;4936174;29;20031;-68
2022/05/18 11:43:58;;;;;;;3.38;1.58;;;;;;;37.69;29.90;100479.56;4931098;29;20036;-69
2022/05/18 11:46:33;;;;;;;2.90;1.30;;;;;;;37.93;28.45;100481.66;4934929;29;20090;-69
2022/05/18 11:49:18;;;;;;;5.28;1.70;;;;;;;38.37;29.86;100485.69;4934646;29;20032;-69
2022/05/18 11:52:08;;;;;;;2.85;1.40;;;;;;;38.34;25.69;100472.22;4934468;29;20107;-69